Gould, Arkansas
Current Conditions -  °F | °C
As of 7:53 PM on Friday 28 Nov 2014 (Local Time) from KPBF Reporting Station
Clear Clear  
Wind Chill: 41°   Ceiling: Unl
Heat Index: 46°   Visibility: 10mi
Dew Point: 36°   Wind: 10mph
Humidity: 68%   Direction: 170°S
Pressure: 30.12"   Gusts: NA
Location:  33.99°N, 91.56°W
Report Text: KPBF 290153Z AUTO 17009KT 10SM CLR 08/02 A3012 RMK AO2 SLP198 T00780022
Loading
Personal Weather Stations






























Interactive Weather Map New forecast layout! Learn more

10-Day Weather Forecast

Advertisements
Track Severe Weather on mobile